createdAt,value
2019-03-29T00:00:44.753Z,9.23
2019-03-29T00:03:17.394Z,8.27
2019-03-29T00:06:02.918Z,8.50
2019-03-29T00:08:38.225Z,9.47
2019-03-29T00:11:15.326Z,9.60
2019-03-29T00:13:47.232Z,9.10
2019-03-29T00:16:19.036Z,9.20
2019-03-29T00:18:52.088Z,8.67
2019-03-29T00:21:40.902Z,8.93
2019-03-29T00:24:31.828Z,9.53
2019-03-29T00:27:01.629Z,9.50
2019-03-29T00:29:36.821Z,11.10
2019-03-29T00:32:16.645Z,9.90
2019-03-29T00:34:52.816Z,9.83
2019-03-29T00:37:21.308Z,8.90
2019-03-29T00:39:50.922Z,10.07
2019-03-29T00:42:22.766Z,10.00
2019-03-29T00:44:58.136Z,9.87
2019-03-29T00:47:27.532Z,10.20
2019-03-29T00:50:02.329Z,9.63
2019-03-29T00:52:41.124Z,9.90
2019-03-29T00:55:21.176Z,10.50
2019-03-29T00:57:59.993Z,9.70
2019-03-29T01:00:36.818Z,9.53
2019-03-29T01:03:13.940Z,9.77
2019-03-29T01:05:50.297Z,9.53
2019-03-29T01:08:20.729Z,9.30
2019-03-29T01:10:56.581Z,9.87
2019-03-29T01:13:32.840Z,10.23
2019-03-29T01:16:13.803Z,9.40
2019-03-29T01:18:48.403Z,9.83
2019-03-29T01:21:22.538Z,9.70
2019-03-29T01:23:58.915Z,10.63
2019-03-29T01:26:41.506Z,9.90
2019-03-29T01:29:22.030Z,9.60
2019-03-29T01:31:55.497Z,8.80
2019-03-29T01:34:28.079Z,10.30
2019-03-29T01:37:08.830Z,10.27
2019-03-29T01:39:43.033Z,10.30
2019-03-29T01:42:19.618Z,9.63
2019-03-29T01:47:46.152Z,9.60
2019-03-29T01:50:18.986Z,9.63
2019-03-29T01:52:53.462Z,9.90
2019-03-29T01:55:24.430Z,10.50
2019-03-29T01:58:03.249Z,10.70
2019-03-29T02:00:32.402Z,10.10
2019-03-29T02:03:00.854Z,10.20
2019-03-29T02:05:35.235Z,9.90
2019-03-29T02:08:06.272Z,10.40
2019-03-29T02:10:39.461Z,10.67
2019-03-29T02:13:18.013Z,10.73
2019-03-29T02:15:57.186Z,10.70
2019-03-29T02:18:31.738Z,10.57
2019-03-29T02:21:04.057Z,10.00
2019-03-29T02:23:40.399Z,9.63
2019-03-29T02:26:13.102Z,10.50
2019-03-29T02:28:51.423Z,10.50
2019-03-29T02:31:25.980Z,10.10
2019-03-29T02:34:00.437Z,10.20
2019-03-29T02:36:28.045Z,9.60
2019-03-29T02:39:08.240Z,10.10
2019-03-29T02:41:46.870Z,9.97
2019-03-29T02:44:45.618Z,10.47
2019-03-29T02:47:12.437Z,9.33
2019-03-29T02:49:42.317Z,10.13
2019-03-29T02:52:27.197Z,11.13
2019-03-29T02:54:58.347Z,10.47
2019-03-29T02:57:41.116Z,11.90
2019-03-29T03:00:17.519Z,10.33
2019-03-29T03:02:57.347Z,11.00
2019-03-29T03:05:37.511Z,10.27
2019-03-29T03:08:25.378Z,10.63
2019-03-29T03:11:04.328Z,10.30
2019-03-29T03:13:32.873Z,10.57
2019-03-29T03:16:04.839Z,10.77
2019-03-29T03:18:34.490Z,11.10
2019-03-29T03:21:05.170Z,11.40
2019-03-29T03:23:37.549Z,10.43
2019-03-29T03:26:14.489Z,11.07
2019-03-29T03:28:42.999Z,10.90
2019-03-29T03:31:16.762Z,10.33
2019-03-29T03:34:01.933Z,12.37
2019-03-29T03:36:34.126Z,10.20
2019-03-29T03:39:30.713Z,10.50
2019-03-29T03:41:49.588Z,10.20
2019-03-29T03:44:23.423Z,10.67
2019-03-29T03:47:03.289Z,10.60
2019-03-29T03:49:41.017Z,10.17
2019-03-29T03:52:18.360Z,11.47
2019-03-29T03:54:52.185Z,10.23
2019-03-29T03:57:22.592Z,11.70
2019-03-29T03:59:53.754Z,10.53
2019-03-29T04:02:31.856Z,12.00
2019-03-29T04:05:01.300Z,11.40
2019-03-29T04:07:31.001Z,11.40
2019-03-29T04:10:19.376Z,10.83
2019-03-29T04:12:50.154Z,11.20
2019-03-29T04:15:23.472Z,10.97
2019-03-29T04:17:54.179Z,10.93
2019-03-29T04:20:28.393Z,10.50
2019-03-29T04:23:01.846Z,12.43
2019-03-29T04:25:32.159Z,11.20
2019-03-29T04:28:08.948Z,11.20
2019-03-29T04:30:41.801Z,11.07
2019-03-29T04:33:13.633Z,10.93
2019-03-29T04:35:43.127Z,11.77
2019-03-29T04:38:19.274Z,11.63
2019-03-29T04:40:50.639Z,12.03
2019-03-29T04:43:19.100Z,11.73
2019-03-29T04:45:48.829Z,11.80
2019-03-29T04:48:32.658Z,11.17
2019-03-29T04:51:14.157Z,11.37
2019-03-29T04:53:51.343Z,12.07
2019-03-29T04:56:34.058Z,11.23
2019-03-29T04:59:23.008Z,12.60
2019-03-29T05:02:02.228Z,11.20
2019-03-29T05:04:37.344Z,12.17
2019-03-29T05:07:10.504Z,11.90
2019-03-29T05:09:44.945Z,13.50
2019-03-29T05:12:21.596Z,12.07
2019-03-29T05:14:55.653Z,11.73
2019-03-29T05:17:32.734Z,11.90
2019-03-29T05:20:00.980Z,11.87
2019-03-29T05:22:36.000Z,11.93
2019-03-29T05:25:21.939Z,12.80
2019-03-29T05:27:56.850Z,11.37
2019-03-29T05:30:42.382Z,11.53
2019-03-29T05:33:14.522Z,11.63
2019-03-29T05:35:44.930Z,12.57
2019-03-29T05:38:23.259Z,12.17
2019-03-29T05:40:56.249Z,12.77
2019-03-29T05:43:35.546Z,11.47
2019-03-29T05:46:05.678Z,12.73
2019-03-29T05:48:38.168Z,12.33
2019-03-29T05:51:08.699Z,10.90
2019-03-29T05:53:42.539Z,12.83
2019-03-29T05:56:28.570Z,13.00
2019-03-29T05:59:11.814Z,10.73
2019-03-29T06:01:49.762Z,11.27
2019-03-29T06:04:17.318Z,11.37
2019-03-29T06:06:55.736Z,12.23
2019-03-29T06:12:23.038Z,10.90
2019-03-29T06:15:08.445Z,11.83
2019-03-29T06:17:48.406Z,12.13
2019-03-29T06:20:12.001Z,11.80
2019-03-29T06:22:44.407Z,11.17
2019-03-29T06:25:26.469Z,11.57
2019-03-29T06:27:57.597Z,11.40
2019-03-29T06:30:39.989Z,11.73
2019-03-29T06:33:18.698Z,11.27
2019-03-29T06:35:51.744Z,11.30
2019-03-29T06:38:23.638Z,10.40
2019-03-29T06:41:03.253Z,10.53
2019-03-29T06:43:30.846Z,10.50
2019-03-29T06:46:04.886Z,9.73
2019-03-29T06:48:39.233Z,11.10
2019-03-29T06:51:17.312Z,10.67
2019-03-29T06:53:55.572Z,10.47
2019-03-29T06:56:35.084Z,10.10
2019-03-29T06:59:27.925Z,11.17
2019-03-29T07:02:02.746Z,10.97
2019-03-29T07:04:29.463Z,9.87
2019-03-29T07:06:59.959Z,10.87
2019-03-29T07:09:28.402Z,10.13
2019-03-29T07:11:56.853Z,10.10
2019-03-29T07:14:25.489Z,11.50
2019-03-29T07:16:53.882Z,10.67
2019-03-29T07:19:22.266Z,10.07
2019-03-29T07:21:54.695Z,12.43
2019-03-29T07:24:23.174Z,11.00
2019-03-29T07:26:54.615Z,11.87
2019-03-29T07:29:23.069Z,10.37
2019-03-29T07:31:53.181Z,10.10
2019-03-29T07:34:21.485Z,10.20
2019-03-29T07:36:49.800Z,11.03
2019-03-29T07:39:27.574Z,10.77
2019-03-29T07:41:58.034Z,10.77
2019-03-29T07:44:35.129Z,12.13
2019-03-29T07:47:06.112Z,10.53
2019-03-29T07:49:40.044Z,8.83
2019-03-29T07:52:11.582Z,10.40
2019-03-29T07:54:51.876Z,10.20
2019-03-29T07:57:25.385Z,10.50
2019-03-29T07:59:58.716Z,9.30
2019-03-29T08:02:39.588Z,10.27
2019-03-29T08:05:18.358Z,11.03
2019-03-29T08:08:22.814Z,10.33
2019-03-29T08:10:45.163Z,10.43
2019-03-29T08:13:23.659Z,11.73
2019-03-29T08:15:57.289Z,10.43
2019-03-29T08:18:32.781Z,11.53
2019-03-29T08:21:04.213Z,10.47
2019-03-29T08:23:46.165Z,9.30
2019-03-29T08:26:16.507Z,10.30
2019-03-29T08:28:55.464Z,10.00
2019-03-29T08:31:28.336Z,10.30
2019-03-29T08:34:01.418Z,9.10
2019-03-29T08:36:36.337Z,9.50
2019-03-29T08:39:27.254Z,10.77
2019-03-29T08:42:00.119Z,9.30
2019-03-29T08:44:25.326Z,11.43
2019-03-29T08:47:08.180Z,8.97
2019-03-29T08:49:43.854Z,8.00
2019-03-29T08:52:15.289Z,7.83
2019-03-29T08:54:47.667Z,8.50
2019-03-29T08:57:40.585Z,7.50
2019-03-29T09:00:19.762Z,8.80
2019-03-29T09:05:46.290Z,9.50
2019-03-29T09:08:20.956Z,9.47
2019-03-29T09:10:52.105Z,8.20
2019-03-29T09:13:23.335Z,8.10
2019-03-29T09:15:57.180Z,7.73
2019-03-29T09:18:29.878Z,8.30
2019-03-29T09:21:01.871Z,5.90
2019-03-29T09:23:53.177Z,7.13
2019-03-29T09:26:29.676Z,7.67
2019-03-29T09:29:01.635Z,8.60
2019-03-29T09:31:38.564Z,7.07
2019-03-29T09:34:14.148Z,7.80
2019-03-29T09:39:45.767Z,8.63
2019-03-29T09:42:27.760Z,8.17
2019-03-29T09:44:58.467Z,7.67
2019-03-29T09:47:39.846Z,7.20
2019-03-29T09:50:09.962Z,8.03
2019-03-29T09:52:41.724Z,7.30
2019-03-29T09:55:19.224Z,7.00
2019-03-29T09:58:01.467Z,6.43
2019-03-29T10:01:20.624Z,5.27
2019-03-29T10:04:08.724Z,6.70
2019-03-29T10:06:46.530Z,6.00
2019-03-29T10:09:24.477Z,6.03
2019-03-29T10:11:52.304Z,5.77
2019-03-29T10:14:22.536Z,6.43
2019-03-29T10:16:55.552Z,5.33
2019-03-29T10:19:26.646Z,7.10
2019-03-29T10:22:08.136Z,6.70
2019-03-29T10:24:50.455Z,6.50
2019-03-29T10:27:28.127Z,6.63
2019-03-29T10:29:57.740Z,6.80
2019-03-29T10:32:31.161Z,6.40
2019-03-29T10:35:07.642Z,5.80
2019-03-29T10:37:38.903Z,5.37
2019-03-29T10:40:21.329Z,7.30
2019-03-29T10:42:57.046Z,5.97
2019-03-29T10:45:21.423Z,6.40
2019-03-29T10:47:55.907Z,5.80
2019-03-29T10:50:34.347Z,6.80
2019-03-29T10:53:04.590Z,6.87
2019-03-29T10:55:45.847Z,6.90
2019-03-29T10:58:33.140Z,6.50
2019-03-29T11:01:01.645Z,7.90
2019-03-29T11:03:44.087Z,5.97
2019-03-29T11:06:22.724Z,7.30
2019-03-29T11:08:52.705Z,7.00
2019-03-29T11:11:28.244Z,6.90
2019-03-29T11:13:59.794Z,6.23
2019-03-29T11:16:34.976Z,5.30
2019-03-29T11:19:13.886Z,6.43
2019-03-29T11:21:46.563Z,6.03
2019-03-29T11:24:22.890Z,6.30
2019-03-29T11:26:54.746Z,6.33
2019-03-29T11:29:37.544Z,5.53
2019-03-29T11:32:11.682Z,4.83
2019-03-29T11:34:52.714Z,5.40
2019-03-29T11:37:33.133Z,4.73
2019-03-29T11:40:12.272Z,5.40
2019-03-29T11:42:53.859Z,7.37
2019-03-29T11:45:22.524Z,6.77
2019-03-29T11:48:07.267Z,8.77
2019-03-29T11:50:29.044Z,7.83
2019-03-29T11:52:56.757Z,8.60
2019-03-29T11:55:42.386Z,8.87
2019-03-29T11:58:14.169Z,7.60
2019-03-29T12:01:05.631Z,8.20
2019-03-29T12:03:39.269Z,8.00
2019-03-29T12:06:11.878Z,7.97
2019-03-29T12:08:48.864Z,8.20
2019-03-29T12:11:17.285Z,8.30
2019-03-29T12:13:54.925Z,8.17
2019-03-29T12:16:30.490Z,8.50
2019-03-29T12:19:02.371Z,8.50
2019-03-29T12:21:32.171Z,8.73
2019-03-29T12:24:23.563Z,8.30
2019-03-29T12:26:54.892Z,8.20
2019-03-29T12:29:22.105Z,7.80
2019-03-29T12:31:50.421Z,8.63
2019-03-29T12:34:19.180Z,9.23
2019-03-29T12:36:47.598Z,8.63
2019-03-29T12:39:16.163Z,8.13
2019-03-29T12:41:44.701Z,8.53
2019-03-29T12:44:13.198Z,8.27
2019-03-29T12:46:41.578Z,7.67
2019-03-29T12:49:11.027Z,8.57
2019-03-29T12:51:39.473Z,8.80
2019-03-29T12:54:07.863Z,8.33
2019-03-29T12:56:36.343Z,8.23
2019-03-29T12:59:04.815Z,7.30
2019-03-29T13:01:39.172Z,8.20
2019-03-29T13:04:03.390Z,9.30
2019-03-29T13:06:31.738Z,7.87
2019-03-29T13:09:00.179Z,7.80
2019-03-29T13:11:28.692Z,7.00
2019-03-29T13:14:09.458Z,7.20
2019-03-29T13:16:27.571Z,7.37
2019-03-29T13:18:56.202Z,6.73
2019-03-29T13:21:24.666Z,7.07
2019-03-29T13:23:53.109Z,7.53
2019-03-29T13:26:21.628Z,7.17
2019-03-29T13:28:50.066Z,7.43
2019-03-29T13:31:18.486Z,6.80
2019-03-29T13:33:48.222Z,6.97
2019-03-29T13:36:16.651Z,8.33
2019-03-29T13:38:46.381Z,6.23
2019-03-29T13:41:14.823Z,7.70
2019-03-29T13:43:43.261Z,6.67
2019-03-29T13:46:11.800Z,6.70
2019-03-29T13:48:40.637Z,7.10
2019-03-29T13:51:09.025Z,7.10
2019-03-29T13:53:38.382Z,7.17
2019-03-29T13:56:06.972Z,6.63
2019-03-29T13:58:35.460Z,7.30
2019-03-29T14:01:04.088Z,5.90
2019-03-29T14:03:32.580Z,6.73
2019-03-29T14:06:01.051Z,6.03
2019-03-29T14:08:29.479Z,6.10
2019-03-29T14:10:57.919Z,6.53
2019-03-29T14:13:26.331Z,7.70
2019-03-29T14:15:54.738Z,7.13
2019-03-29T14:18:23.506Z,6.47
2019-03-29T14:20:51.950Z,6.97
2019-03-29T14:23:20.368Z,5.80
2019-03-29T14:25:48.995Z,6.40
2019-03-29T14:28:17.413Z,6.20
2019-03-29T14:30:45.806Z,5.90
2019-03-29T14:33:21.707Z,7.20
2019-03-29T14:35:50.189Z,6.33
2019-03-29T14:38:18.550Z,6.30
2019-03-29T14:40:47.085Z,6.60
2019-03-29T14:43:15.450Z,5.10
2019-03-29T14:45:43.854Z,7.00
2019-03-29T14:48:12.333Z,6.03
2019-03-29T14:50:41.006Z,5.70
2019-03-29T14:53:09.464Z,7.00
2019-03-29T14:55:37.964Z,7.70
2019-03-29T14:58:06.432Z,5.97
2019-03-29T15:00:39.554Z,6.17
2019-03-29T15:03:08.041Z,5.47
2019-03-29T15:05:36.468Z,5.87
2019-03-29T15:08:04.877Z,5.57
2019-03-29T15:10:33.256Z,5.33
2019-03-29T15:13:03.135Z,5.60
2019-03-29T15:15:31.472Z,6.17
2019-03-29T15:17:59.919Z,5.10
2019-03-29T15:20:28.380Z,5.63
2019-03-29T15:22:56.787Z,5.10
2019-03-29T15:25:25.161Z,5.30
2019-03-29T15:27:53.586Z,7.33
2019-03-29T15:30:22.111Z,4.53
2019-03-29T15:32:50.636Z,5.80
2019-03-29T15:35:20.884Z,5.80
2019-03-29T15:37:49.559Z,4.87
2019-03-29T15:40:17.939Z,5.47
2019-03-29T15:42:47.357Z,5.60
2019-03-29T15:45:20.597Z,5.07
2019-03-29T15:47:45.946Z,5.80
2019-03-29T15:50:14.388Z,5.37
2019-03-29T15:52:44.966Z,5.10
2019-03-29T15:55:13.544Z,4.60
2019-03-29T15:57:41.957Z,5.10
2019-03-29T16:00:11.048Z,4.90
2019-03-29T16:02:39.517Z,4.63
2019-03-29T16:05:07.974Z,4.70
2019-03-29T16:07:36.434Z,5.50
2019-03-29T16:10:05.040Z,4.67
2019-03-29T16:12:33.604Z,4.67
2019-03-29T16:15:01.992Z,4.40
2019-03-29T16:17:30.393Z,5.97
2019-03-29T16:19:58.931Z,4.73
2019-03-29T16:22:27.363Z,5.10
2019-03-29T16:24:58.885Z,5.90
2019-03-29T16:27:27.612Z,5.23
2019-03-29T16:29:56.132Z,4.97
2019-03-29T16:32:24.499Z,4.87
2019-03-29T16:34:52.911Z,4.43
2019-03-29T16:37:21.290Z,5.40
2019-03-29T16:39:49.991Z,5.30
2019-03-29T16:42:18.624Z,5.10
2019-03-29T16:44:47.096Z,5.20
2019-03-29T16:47:15.541Z,5.17
2019-03-29T16:49:44.046Z,4.83
2019-03-29T16:52:12.505Z,5.30
2019-03-29T16:54:40.967Z,4.80
2019-03-29T16:57:09.443Z,4.77
2019-03-29T16:59:38.002Z,5.77
2019-03-29T17:02:06.396Z,5.30
2019-03-29T17:04:35.209Z,5.57
2019-03-29T17:07:03.676Z,5.10
2019-03-29T17:09:32.117Z,5.13
2019-03-29T17:12:00.648Z,5.00
2019-03-29T17:14:29.075Z,5.77
2019-03-29T17:17:03.569Z,5.70
2019-03-29T17:19:33.189Z,5.30
2019-03-29T17:22:03.531Z,5.33
2019-03-29T17:24:32.010Z,5.03
2019-03-29T17:27:00.372Z,4.50
2019-03-29T17:29:28.914Z,5.27
2019-03-29T17:31:57.343Z,4.70
2019-03-29T17:34:25.840Z,5.47
2019-03-29T17:36:54.416Z,5.50
2019-03-29T17:39:22.918Z,4.70
2019-03-29T17:41:51.406Z,5.10
2019-03-29T17:44:19.838Z,5.00
2019-03-29T17:46:48.267Z,4.80
2019-03-29T17:49:16.724Z,5.10
2019-03-29T17:51:47.181Z,5.30
2019-03-29T17:54:15.380Z,5.60
2019-03-29T17:56:43.876Z,4.67
2019-03-29T17:59:12.500Z,4.93
2019-03-29T18:01:40.827Z,5.30
2019-03-29T18:04:09.304Z,6.23
2019-03-29T18:06:37.757Z,5.80
2019-03-29T18:09:07.201Z,5.40
2019-03-29T18:11:35.926Z,5.80
2019-03-29T18:14:04.374Z,7.17
2019-03-29T18:16:32.903Z,6.40
2019-03-29T18:19:01.450Z,7.13
2019-03-29T18:21:30.125Z,6.93
2019-03-29T18:24:00.050Z,6.50
2019-03-29T18:26:28.682Z,6.23
2019-03-29T18:28:57.376Z,6.07
2019-03-29T18:31:25.795Z,6.77
2019-03-29T18:33:54.290Z,6.87
2019-03-29T18:36:22.746Z,6.60
2019-03-29T18:38:51.372Z,5.80
2019-03-29T18:41:21.453Z,6.63
2019-03-29T18:43:52.606Z,6.27
2019-03-29T18:46:28.804Z,6.23
2019-03-29T18:48:57.250Z,6.20
2019-03-29T18:51:25.802Z,6.80
2019-03-29T18:54:00.325Z,6.63
2019-03-29T18:56:29.990Z,5.83
2019-03-29T18:58:59.793Z,6.70
2019-03-29T19:01:28.419Z,6.40
2019-03-29T19:03:57.974Z,6.53
2019-03-29T19:06:26.445Z,6.60
2019-03-29T19:08:56.686Z,6.50
2019-03-29T19:11:32.059Z,7.13
2019-03-29T19:14:00.579Z,6.73
2019-03-29T19:16:31.929Z,7.50
2019-03-29T19:19:09.935Z,8.93
2019-03-29T19:21:30.443Z,8.17
2019-03-29T19:23:58.925Z,7.43
2019-03-29T19:26:27.332Z,6.60
2019-03-29T19:28:55.866Z,7.20
2019-03-29T19:31:24.306Z,7.60
2019-03-29T19:33:52.947Z,7.53
2019-03-29T19:36:22.548Z,7.50
2019-03-29T19:38:50.965Z,7.13
2019-03-29T19:41:21.077Z,8.50
2019-03-29T19:43:49.422Z,7.57
2019-03-29T19:46:17.862Z,7.73
2019-03-29T19:48:49.006Z,8.03
2019-03-29T19:51:19.345Z,8.30
2019-03-29T19:53:50.727Z,7.93
2019-03-29T19:56:19.159Z,7.67
2019-03-29T19:58:47.619Z,8.40
2019-03-29T20:01:16.138Z,7.93
2019-03-29T20:03:44.690Z,9.10
2019-03-29T20:06:13.102Z,8.73
2019-03-29T20:08:41.823Z,8.93
2019-03-29T20:11:10.310Z,8.47
2019-03-29T20:13:38.828Z,10.20
2019-03-29T20:16:07.383Z,8.50
2019-03-29T20:18:37.314Z,9.03
2019-03-29T20:21:05.877Z,9.03
2019-03-29T20:23:34.623Z,8.00
2019-03-29T20:26:08.092Z,8.17
2019-03-29T20:28:34.993Z,8.47
2019-03-29T20:31:06.157Z,8.33
2019-03-29T20:33:34.592Z,8.70
2019-03-29T20:36:04.175Z,9.40
2019-03-29T20:38:32.773Z,8.83
2019-03-29T20:41:01.201Z,8.43
2019-03-29T20:43:29.653Z,9.07
2019-03-29T20:45:58.029Z,8.20
2019-03-29T20:48:26.465Z,8.20
2019-03-29T20:50:54.949Z,8.87
2019-03-29T20:53:23.906Z,8.97
2019-03-29T20:55:52.389Z,8.80
2019-03-29T20:58:20.974Z,8.83
2019-03-29T21:00:49.464Z,8.37
2019-03-29T21:03:17.953Z,8.53
2019-03-29T21:05:46.352Z,8.83
2019-03-29T21:08:14.897Z,8.90
2019-03-29T21:10:54.774Z,9.17
2019-03-29T21:13:13.509Z,8.83
2019-03-29T21:15:41.921Z,8.80
2019-03-29T21:18:12.854Z,8.97
2019-03-29T21:20:41.309Z,9.30
2019-03-29T21:23:09.729Z,9.67
2019-03-29T21:25:38.123Z,9.47
2019-03-29T21:28:06.581Z,9.47
2019-03-29T21:30:35.043Z,9.63
2019-03-29T21:33:09.390Z,9.87
2019-03-29T21:35:37.838Z,9.57
2019-03-29T21:38:06.289Z,9.83
2019-03-29T21:40:34.747Z,9.37
2019-03-29T21:43:03.139Z,9.10
2019-03-29T21:45:31.588Z,9.20
2019-03-29T21:48:09.995Z,9.10
2019-03-29T21:50:30.296Z,8.87
2019-03-29T21:53:02.257Z,8.60
2019-03-29T21:55:30.694Z,9.53
2019-03-29T21:57:59.129Z,9.47
2019-03-29T22:00:27.572Z,8.90
2019-03-29T22:02:56.068Z,10.10
2019-03-29T22:05:24.505Z,9.40
2019-03-29T22:07:55.690Z,10.13
2019-03-29T22:10:24.002Z,8.60
2019-03-29T22:12:52.468Z,8.53
2019-03-29T22:15:25.333Z,9.27
2019-03-29T22:17:53.735Z,9.13
2019-03-29T22:20:23.388Z,9.80
2019-03-29T22:22:51.799Z,8.63
2019-03-29T22:25:20.250Z,9.73
2019-03-29T22:27:48.696Z,8.63
2019-03-29T22:30:18.642Z,9.20
2019-03-29T22:32:47.188Z,9.07
2019-03-29T22:35:15.656Z,9.10
2019-03-29T22:37:44.111Z,9.37
2019-03-29T22:40:12.473Z,8.50
2019-03-29T22:42:43.387Z,9.50
2019-03-29T22:45:11.845Z,9.03
2019-03-29T22:47:40.250Z,9.37
2019-03-29T22:50:09.004Z,8.70
2019-03-29T22:52:37.476Z,8.43
2019-03-29T22:55:06.441Z,9.30
2019-03-29T22:57:34.953Z,10.00
2019-03-29T23:00:03.565Z,9.47
2019-03-29T23:02:32.126Z,8.93
2019-03-29T23:05:01.686Z,8.83
2019-03-29T23:07:34.281Z,8.60
2019-03-29T23:10:02.706Z,8.90
2019-03-29T23:12:31.140Z,10.50
2019-03-29T23:14:59.546Z,10.07
2019-03-29T23:17:29.880Z,9.90
2019-03-29T23:19:58.400Z,9.53
2019-03-29T23:22:26.873Z,9.37
2019-03-29T23:24:55.364Z,9.27
2019-03-29T23:27:23.862Z,9.10
2019-03-29T23:29:53.473Z,9.10
2019-03-29T23:32:22.134Z,9.13
2019-03-29T23:34:50.666Z,8.70
2019-03-29T23:37:19.215Z,8.50
2019-03-29T23:39:49.296Z,9.80
2019-03-29T23:42:18.034Z,8.80
2019-03-29T23:44:46.541Z,9.03
2019-03-29T23:47:14.948Z,8.47
2019-03-29T23:49:46.537Z,9.50
2019-03-29T23:52:14.992Z,9.07
2019-03-29T23:54:43.456Z,8.90
2019-03-29T23:57:12.070Z,9.40
2019-03-29T23:59:40.649Z,8.83
